KLHB

Hearne Municipal Airport

Hearne, Texas, USA
METAR KLHB 200055Z AUTO 14005KT 10SM OVC013 13/11 A3011 RMK AO2 T01260108
Observed Flight Rules
Jan-20 @ 00:55 UTC (24 minutes ago) Marginal Visual Flight Rules
Wind Visibility Clouds
140° at 5 knots 10 miles
  • Overcast at 1,300' AGL
Temperatures Readings
Current 13°C / 55°F
Dewpoint 11°C / 52°F
Humidity 88%
Altimeter 30.11" Hg
Pressure 1020 hPa
Elevation 87
METAR KLHB 200055Z AUTO 14005KT 10SM OVC013 13/11 A3011 RMK AO2 T01260108
Observed Flight Rules
Jan-20 @ 00:55 UTC
(24 minutes ago)
MVFR
Wind Visibility
140° at 5 knots 10 miles
Clouds
  • Overcast at 1,300' AGL
Temperature Dewpoint
13°C / 55°F 11°C / 52°F
Humidity Altimeter Pressure
88% 30.11" Hg 1020 hPa